Appleton Thorn, United Kingdom
Current Conditions -  °F | °C
As of 1:20 PM on Thursday 18 Dec 2014 (Local Time) from EGCC Reporting Station
Broken Clouds Broken Clouds  
Wind Chill: 12°   Ceiling: 2200
Heat Index: 12°   Visibility: 6mi
Dew Point: 10°   Wind: 17mph
Humidity: 88%   Direction: 220°SW
Pressure: 29.62"   Gusts: NA
Location:  53.35°N, 2.54°W
Report Text: EGCC 181320Z 22015KT 9999 SCT018 BKN022 12/10 Q1003 NOSIG
Loading
Personal Weather Stations






























Interactive Weather Map New forecast layout! Learn more

10-Day Weather Forecast

Advertisements
Track Severe Weather on mobile